createdAt,value
2018-11-23T00:00:24.504Z,13.43
2018-11-23T00:02:53.329Z,12.73
2018-11-23T00:05:22.303Z,14.57
2018-11-23T00:07:51.607Z,13.70
2018-11-23T00:10:21.627Z,12.70
2018-11-23T00:12:50.205Z,13.57
2018-11-23T00:15:20.046Z,14.40
2018-11-23T00:17:48.616Z,13.57
2018-11-23T00:20:19.541Z,14.00
2018-11-23T00:22:48.066Z,13.60
2018-11-23T00:25:17.837Z,12.90
2018-11-23T00:27:46.386Z,13.50
2018-11-23T00:30:17.694Z,13.50
2018-11-23T00:32:46.662Z,13.73
2018-11-23T00:35:17.029Z,13.20
2018-11-23T00:37:46.077Z,13.73
2018-11-23T00:40:23.447Z,13.50
2018-11-23T00:42:52.389Z,13.40
2018-11-23T00:45:20.989Z,13.30
2018-11-23T00:47:50.386Z,13.10
2018-11-23T00:50:20.296Z,12.70
2018-11-23T00:52:49.307Z,12.87
2018-11-23T00:55:19.239Z,13.13
2018-11-23T00:57:47.916Z,13.00
2018-11-23T01:00:23.217Z,12.60
2018-11-23T01:02:52.306Z,12.83
2018-11-23T01:05:21.087Z,13.23
2018-11-23T01:07:50.102Z,13.80
2018-11-23T01:10:19.957Z,12.40
2018-11-23T01:12:49.632Z,12.40
2018-11-23T01:15:18.308Z,12.73
2018-11-23T01:17:46.851Z,12.60
2018-11-23T01:20:19.435Z,12.13
2018-11-23T01:22:48.761Z,11.90
2018-11-23T01:25:18.693Z,12.60
2018-11-23T01:27:48.403Z,12.53
2018-11-23T01:30:20.353Z,12.10
2018-11-23T01:32:49.014Z,12.50
2018-11-23T01:35:17.653Z,13.27
2018-11-23T01:37:46.211Z,12.80
2018-11-23T01:40:16.557Z,12.50
2018-11-23T01:42:45.539Z,12.73
2018-11-23T01:45:14.625Z,12.87
2018-11-23T01:47:43.451Z,13.00
2018-11-23T01:50:15.242Z,13.33
2018-11-23T01:52:44.887Z,12.20
2018-11-23T01:55:14.203Z,13.17
2018-11-23T01:57:44.029Z,13.03
2018-11-23T02:00:15.901Z,12.30
2018-11-23T02:02:44.962Z,12.33
2018-11-23T02:05:13.593Z,13.23
2018-11-23T02:07:42.857Z,13.13
2018-11-23T02:10:12.886Z,13.00
2018-11-23T02:12:41.519Z,13.23
2018-11-23T02:15:12.614Z,13.17
2018-11-23T02:17:42.115Z,13.43
2018-11-23T02:20:12.251Z,13.70
2018-11-23T02:22:40.869Z,13.17
2018-11-23T02:25:09.371Z,13.43
2018-11-23T02:27:37.983Z,13.50
2018-11-23T02:30:13.588Z,12.90
2018-11-23T02:32:42.618Z,13.13
2018-11-23T02:35:11.415Z,13.00
2018-11-23T02:37:40.205Z,12.67
2018-11-23T02:40:10.177Z,13.27
2018-11-23T02:42:39.054Z,13.20
2018-11-23T02:45:12.174Z,13.07
2018-11-23T02:47:41.398Z,13.07
2018-11-23T02:50:10.389Z,13.77
2018-11-23T02:52:39.718Z,12.70
2018-11-23T02:55:09.428Z,14.13
2018-11-23T02:57:38.215Z,13.67
2018-11-23T03:00:09.095Z,13.40
2018-11-23T03:02:37.623Z,13.00
2018-11-23T03:05:07.140Z,13.20
2018-11-23T03:07:35.694Z,12.63
2018-11-23T03:10:04.268Z,13.67
2018-11-23T03:12:32.850Z,13.53
2018-11-23T03:15:01.353Z,13.30
2018-11-23T03:17:29.879Z,13.53
2018-11-23T03:19:58.418Z,12.33
2018-11-23T03:22:26.919Z,13.23
2018-11-23T03:24:55.452Z,12.70
2018-11-23T03:27:23.980Z,12.00
2018-11-23T03:29:52.501Z,12.73
2018-11-23T03:32:21.089Z,13.53
2018-11-23T03:34:51.362Z,11.90
2018-11-23T03:37:19.882Z,12.47
2018-11-23T03:39:48.442Z,12.57
2018-11-23T03:42:16.971Z,12.97
2018-11-23T03:44:45.569Z,13.00
2018-11-23T03:47:14.105Z,13.23
2018-11-23T03:49:42.665Z,13.27
2018-11-23T03:52:11.187Z,13.23
2018-11-23T03:54:39.805Z,13.40
2018-11-23T03:57:08.771Z,13.13
2018-11-23T03:59:37.328Z,12.30
2018-11-23T04:02:06.262Z,12.87
2018-11-23T04:04:34.933Z,13.10
2018-11-23T04:07:03.469Z,13.30
2018-11-23T04:09:32.030Z,12.57
2018-11-23T04:12:00.581Z,13.37
2018-11-23T04:14:29.183Z,13.20
2018-11-23T04:16:57.697Z,14.17
2018-11-23T04:19:26.200Z,13.70
2018-11-23T04:21:54.750Z,13.20
2018-11-23T04:24:23.321Z,13.47
2018-11-23T04:26:52.147Z,12.43
2018-11-23T04:29:20.650Z,13.70
2018-11-23T04:31:49.173Z,13.30
2018-11-23T04:34:17.705Z,13.20
2018-11-23T04:36:46.497Z,13.20
2018-11-23T04:39:15.047Z,13.40
2018-11-23T04:41:46.540Z,14.83
2018-11-23T04:44:12.136Z,12.77
2018-11-23T04:46:40.664Z,13.70
2018-11-23T04:49:09.181Z,14.13
2018-11-23T04:51:37.689Z,13.27
2018-11-23T04:54:06.393Z,13.67
2018-11-23T04:56:34.958Z,12.93
2018-11-23T04:59:03.536Z,14.20
2018-11-23T05:01:32.123Z,14.10
2018-11-23T05:04:00.668Z,14.10
2018-11-23T05:06:29.403Z,13.20
2018-11-23T05:08:57.921Z,13.67
2018-11-23T05:11:26.429Z,13.87
2018-11-23T05:13:55.067Z,13.90
2018-11-23T05:16:23.596Z,13.23
2018-11-23T05:18:52.743Z,14.40
2018-11-23T05:21:21.253Z,14.40
2018-11-23T05:23:49.774Z,13.53
2018-11-23T05:26:18.297Z,13.37
2018-11-23T05:28:46.804Z,14.27
2018-11-23T05:31:15.367Z,14.63
2018-11-23T05:33:44.000Z,15.17
2018-11-23T05:36:12.638Z,14.53
2018-11-23T05:38:41.208Z,14.67
2018-11-23T05:41:09.755Z,13.57
2018-11-23T05:43:38.382Z,13.80
2018-11-23T05:46:06.911Z,14.13
2018-11-23T05:48:35.414Z,15.13
2018-11-23T05:51:04.005Z,14.07
2018-11-23T05:53:32.671Z,14.27
2018-11-23T05:56:01.409Z,13.97
2018-11-23T05:58:29.956Z,13.97
2018-11-23T06:00:58.482Z,13.87
2018-11-23T06:03:33.753Z,13.77
2018-11-23T06:06:02.332Z,14.13
2018-11-23T06:08:30.850Z,14.00
2018-11-23T06:10:59.405Z,14.03
2018-11-23T06:13:27.998Z,14.07
2018-11-23T06:15:56.778Z,13.83
2018-11-23T06:18:25.317Z,13.73
2018-11-23T06:20:53.883Z,13.87
2018-11-23T06:23:22.404Z,14.13
2018-11-23T06:25:55.779Z,13.30
2018-11-23T06:28:24.383Z,13.90
2018-11-23T06:30:53.248Z,14.20
2018-11-23T06:33:33.168Z,14.40
2018-11-23T06:36:01.832Z,14.43
2018-11-23T06:38:30.520Z,14.40
2018-11-23T06:40:59.433Z,14.90
2018-11-23T06:43:27.948Z,13.70
2018-11-23T06:45:57.385Z,14.83
2018-11-23T06:48:25.910Z,14.17
2018-11-23T06:50:55.035Z,15.60
2018-11-23T06:53:23.558Z,14.43
2018-11-23T06:55:52.439Z,14.80
2018-11-23T06:58:21.002Z,15.40
2018-11-23T07:00:49.524Z,14.67
2018-11-23T07:03:18.078Z,14.57
2018-11-23T07:05:46.611Z,15.53
2018-11-23T07:08:15.114Z,15.07
2018-11-23T07:10:43.620Z,15.00
2018-11-23T07:13:12.196Z,14.53
2018-11-23T07:15:41.018Z,13.93
2018-11-23T07:18:09.579Z,14.83
2018-11-23T07:20:38.101Z,14.27
2018-11-23T07:23:06.934Z,13.93
2018-11-23T07:25:35.530Z,13.87
2018-11-23T07:28:04.131Z,14.30
2018-11-23T07:30:32.697Z,14.10
2018-11-23T07:33:01.411Z,13.97
2018-11-23T07:35:30.050Z,13.63
2018-11-23T07:37:58.570Z,13.63
2018-11-23T07:40:41.183Z,13.97
2018-11-23T07:43:09.805Z,14.17
2018-11-23T07:45:38.469Z,15.00
2018-11-23T07:48:07.757Z,13.80
2018-11-23T07:50:36.263Z,13.87
2018-11-23T07:53:05.160Z,14.87
2018-11-23T07:55:33.713Z,15.10
2018-11-23T07:58:02.398Z,13.77
2018-11-23T08:00:30.950Z,14.57
2018-11-23T08:02:59.490Z,15.60
2018-11-23T08:05:34.739Z,13.87
2018-11-23T08:08:03.378Z,13.07
2018-11-23T08:10:31.064Z,14.47
2018-11-23T08:12:59.600Z,13.90
2018-11-23T08:15:28.722Z,14.27
2018-11-23T08:17:57.333Z,15.70
2018-11-23T08:20:26.527Z,13.57
2018-11-23T08:22:55.295Z,15.30
2018-11-23T08:25:24.901Z,14.10
2018-11-23T08:27:54.913Z,15.23
2018-11-23T08:30:24.881Z,14.20
2018-11-23T08:32:54.488Z,15.33
2018-11-23T08:35:23.051Z,15.17
2018-11-23T08:37:51.630Z,15.07
2018-11-23T08:40:22.261Z,14.63
2018-11-23T08:42:51.980Z,14.40
2018-11-23T08:45:22.998Z,14.67
2018-11-23T08:47:51.786Z,14.20
2018-11-23T08:50:23.668Z,14.43
2018-11-23T08:52:52.594Z,14.30
2018-11-23T08:55:21.768Z,15.37
2018-11-23T08:57:50.318Z,15.43
2018-11-23T09:00:23.967Z,15.73
2018-11-23T09:02:55.220Z,15.20
2018-11-23T09:05:24.169Z,14.60
2018-11-23T09:07:54.088Z,14.40
2018-11-23T09:10:26.187Z,14.77
2018-11-23T09:12:56.790Z,15.07
2018-11-23T09:15:25.521Z,14.63
2018-11-23T09:17:54.276Z,14.10
2018-11-23T09:20:22.825Z,14.10
2018-11-23T09:22:51.383Z,15.07
2018-11-23T09:25:21.338Z,14.20
2018-11-23T09:27:49.933Z,13.80
2018-11-23T09:30:20.979Z,14.53
2018-11-23T09:32:50.264Z,15.20
2018-11-23T09:35:18.832Z,14.73
2018-11-23T09:37:47.872Z,14.50
2018-11-23T09:40:20.008Z,13.93
2018-11-23T09:42:49.029Z,14.50
2018-11-23T09:45:18.983Z,14.03
2018-11-23T09:47:48.632Z,14.87
2018-11-23T09:50:18.656Z,14.50
2018-11-23T09:52:48.357Z,14.40
2018-11-23T09:55:17.262Z,14.77
2018-11-23T09:57:45.818Z,14.67
2018-11-23T10:00:17.697Z,14.80
2018-11-23T10:02:47.284Z,13.97
2018-11-23T10:05:16.515Z,15.77
2018-11-23T10:07:46.468Z,15.03
2018-11-23T10:10:16.034Z,14.67
2018-11-23T10:12:44.759Z,14.50
2018-11-23T10:15:14.858Z,15.30
2018-11-23T10:17:43.647Z,15.33
2018-11-23T10:20:14.390Z,14.67
2018-11-23T10:22:43.347Z,15.40
2018-11-23T10:25:13.477Z,15.20
2018-11-23T10:27:42.696Z,15.20
2018-11-23T10:30:15.234Z,15.63
2018-11-23T10:32:44.517Z,15.13
2018-11-23T10:35:13.143Z,14.87
2018-11-23T10:37:42.481Z,14.80
2018-11-23T10:40:13.504Z,15.03
2018-11-23T10:42:42.281Z,14.90
2018-11-23T10:45:17.726Z,14.87
2018-11-23T10:47:46.772Z,15.47
2018-11-23T10:50:17.202Z,15.27
2018-11-23T10:52:45.942Z,16.10
2018-11-23T10:55:16.870Z,15.50
2018-11-23T10:57:45.603Z,15.47
2018-11-23T11:00:21.370Z,15.10
2018-11-23T11:02:56.089Z,15.03
2018-11-23T11:05:30.968Z,16.23
2018-11-23T11:08:01.764Z,16.77
2018-11-23T11:10:30.416Z,15.80
2018-11-23T11:12:59.102Z,16.17
2018-11-23T11:15:27.818Z,16.43
2018-11-23T11:17:56.352Z,15.57
2018-11-23T11:20:24.993Z,16.13
2018-11-23T11:22:53.922Z,17.57
2018-11-23T11:25:22.491Z,16.47
2018-11-23T11:27:51.016Z,16.20
2018-11-23T11:30:19.920Z,16.43
2018-11-23T11:32:49.006Z,16.87
2018-11-23T11:35:17.638Z,16.40
2018-11-23T11:37:46.387Z,16.03
2018-11-23T11:40:16.597Z,16.60
2018-11-23T11:42:45.579Z,17.20
2018-11-23T11:45:15.600Z,16.57
2018-11-23T11:47:44.740Z,16.80
2018-11-23T11:50:14.047Z,16.80
2018-11-23T11:52:44.061Z,17.17
2018-11-23T11:55:14.657Z,17.67
2018-11-23T11:57:43.852Z,16.87
2018-11-23T12:00:17.842Z,17.20
2018-11-23T12:02:46.912Z,17.10
2018-11-23T12:05:15.640Z,17.83
2018-11-23T12:07:44.232Z,17.53
2018-11-23T12:10:15.524Z,17.13
2018-11-23T12:12:44.068Z,17.30
2018-11-23T12:15:13.483Z,17.40
2018-11-23T12:17:42.358Z,18.07
2018-11-23T12:20:13.733Z,17.10
2018-11-23T12:22:42.491Z,17.23
2018-11-23T12:25:11.377Z,18.37
2018-11-23T12:27:39.908Z,18.87
2018-11-23T12:30:10.377Z,17.30
2018-11-23T12:32:38.930Z,17.67
2018-11-23T12:35:08.978Z,18.00
2018-11-23T12:37:37.587Z,18.40
2018-11-23T12:40:07.924Z,17.20
2018-11-23T12:42:36.531Z,17.97
2018-11-23T12:45:06.745Z,18.50
2018-11-23T12:47:35.259Z,18.60
2018-11-23T12:50:04.228Z,19.13
2018-11-23T12:52:32.772Z,18.00
2018-11-23T12:55:01.307Z,18.63
2018-11-23T12:57:29.840Z,17.87
2018-11-23T12:59:58.386Z,18.57
2018-11-23T13:02:26.918Z,19.07
2018-11-23T13:04:55.702Z,18.17
2018-11-23T13:07:24.425Z,19.13
2018-11-23T13:09:52.943Z,19.40
2018-11-23T13:12:21.450Z,19.10
2018-11-23T13:14:49.972Z,18.40
2018-11-23T13:17:18.589Z,19.00
2018-11-23T13:19:47.312Z,19.17
2018-11-23T13:22:15.901Z,18.83
2018-11-23T13:24:44.466Z,18.77
2018-11-23T13:27:15.421Z,19.40
2018-11-23T13:29:44.833Z,18.60
2018-11-23T13:32:13.382Z,19.13
2018-11-23T13:34:44.778Z,19.00
2018-11-23T13:37:13.547Z,18.87
2018-11-23T13:39:42.553Z,20.03
2018-11-23T13:42:11.242Z,19.93
2018-11-23T13:44:39.853Z,19.10
2018-11-23T13:47:08.399Z,20.03
2018-11-23T13:49:36.940Z,19.27
2018-11-23T13:52:05.634Z,19.57
2018-11-23T13:54:34.180Z,18.77
2018-11-23T13:57:02.720Z,19.07
2018-11-23T13:59:31.230Z,19.07
2018-11-23T14:01:59.800Z,19.33
2018-11-23T14:04:28.339Z,18.73
2018-11-23T14:06:57.006Z,19.23
2018-11-23T14:09:25.535Z,18.50
2018-11-23T14:11:54.074Z,19.03
2018-11-23T14:14:22.808Z,18.87
2018-11-23T14:16:51.317Z,18.57
2018-11-23T14:19:19.834Z,18.90
2018-11-23T14:21:48.361Z,18.50
2018-11-23T14:24:16.889Z,17.00
2018-11-23T14:26:45.465Z,17.57
2018-11-23T14:29:14.031Z,18.60
2018-11-23T14:31:42.661Z,18.57
2018-11-23T14:34:12.178Z,17.90
2018-11-23T14:36:40.790Z,18.47
2018-11-23T14:39:10.189Z,17.03
2018-11-23T14:41:38.886Z,18.33
2018-11-23T14:44:07.428Z,18.40
2018-11-23T14:46:36.006Z,18.47
2018-11-23T14:49:04.648Z,18.00
2018-11-23T14:51:33.296Z,18.37
2018-11-23T14:54:01.886Z,17.70
2018-11-23T14:56:30.430Z,18.97
2018-11-23T14:58:58.978Z,19.30
2018-11-23T15:01:27.512Z,18.97
2018-11-23T15:03:56.058Z,20.10
2018-11-23T15:06:24.684Z,18.50
2018-11-23T15:08:53.246Z,18.80
2018-11-23T15:11:21.778Z,18.70
2018-11-23T15:13:50.352Z,19.07
2018-11-23T15:16:18.870Z,18.77
2018-11-23T15:18:47.414Z,19.07
2018-11-23T15:21:16.010Z,19.53
2018-11-23T15:23:44.698Z,18.23
2018-11-23T15:26:13.230Z,17.03
2018-11-23T15:28:41.888Z,19.87
2018-11-23T15:31:10.517Z,19.13
2018-11-23T15:33:39.029Z,19.17
2018-11-23T15:36:07.569Z,18.97
2018-11-23T15:38:36.109Z,19.40
2018-11-23T15:41:04.729Z,19.03
2018-11-23T15:43:33.337Z,18.77
2018-11-23T15:46:01.873Z,18.93
2018-11-23T15:48:30.398Z,19.67
2018-11-23T15:51:03.307Z,19.17
2018-11-23T15:53:31.949Z,19.00
2018-11-23T15:56:00.578Z,19.90
2018-11-23T15:58:29.605Z,20.03
2018-11-23T16:00:58.167Z,19.13
2018-11-23T16:03:26.704Z,18.80
2018-11-23T16:05:55.307Z,19.50
2018-11-23T16:08:23.875Z,19.00
2018-11-23T16:10:52.401Z,19.90
2018-11-23T16:13:21.094Z,20.73
2018-11-23T16:15:49.646Z,19.67
2018-11-23T16:18:18.349Z,18.83
2018-11-23T16:20:47.398Z,18.57
2018-11-23T16:23:18.443Z,19.93
2018-11-23T16:25:47.637Z,19.00
2018-11-23T16:28:16.156Z,19.23
2018-11-23T16:30:46.243Z,19.40
2018-11-23T16:33:16.660Z,20.47
2018-11-23T16:35:45.461Z,20.47
2018-11-23T16:38:16.606Z,20.43
2018-11-23T16:40:47.290Z,20.90
2018-11-23T16:43:16.908Z,20.67
2018-11-23T16:45:45.997Z,20.50
2018-11-23T16:48:15.238Z,20.70
2018-11-23T16:50:44.386Z,20.07
2018-11-23T16:53:13.138Z,19.10
2018-11-23T16:55:41.727Z,19.63
2018-11-23T16:58:11.645Z,19.90
2018-11-23T17:00:41.641Z,19.60
2018-11-23T17:03:12.399Z,19.27
2018-11-23T17:05:42.362Z,19.93
2018-11-23T17:08:11.301Z,18.80
2018-11-23T17:10:39.974Z,18.37
2018-11-23T17:13:08.835Z,20.50
2018-11-23T17:15:37.394Z,19.77
2018-11-23T17:18:06.548Z,18.17
2018-11-23T17:20:35.542Z,18.77
2018-11-23T17:23:05.114Z,18.37
2018-11-23T17:25:33.937Z,18.20
2018-11-23T17:28:04.162Z,18.13
2018-11-23T17:30:33.478Z,17.13
2018-11-23T17:33:02.042Z,17.53
2018-11-23T17:35:30.856Z,16.40
2018-11-23T17:37:59.430Z,16.93
2018-11-23T17:40:29.645Z,16.80
2018-11-23T17:42:58.582Z,16.37
2018-11-23T17:45:29.522Z,17.27
2018-11-23T17:47:58.306Z,16.77
2018-11-23T17:50:28.382Z,16.70
2018-11-23T17:52:57.676Z,16.67
2018-11-23T17:55:26.293Z,16.80
2018-11-23T17:57:55.566Z,17.37
2018-11-23T18:00:28.715Z,17.47
2018-11-23T18:02:58.614Z,17.57
2018-11-23T18:05:27.888Z,17.80
2018-11-23T18:07:56.670Z,17.60
2018-11-23T18:10:26.692Z,17.67
2018-11-23T18:12:56.214Z,17.17
2018-11-23T18:15:27.293Z,17.20
2018-11-23T18:17:57.172Z,16.67
2018-11-23T18:20:26.756Z,17.33
2018-11-23T18:22:56.394Z,17.60
2018-11-23T18:25:26.490Z,17.37
2018-11-23T18:28:00.320Z,17.90
2018-11-23T18:30:31.361Z,16.10
2018-11-23T18:33:00.799Z,17.83
2018-11-23T18:35:29.359Z,16.00
2018-11-23T18:37:57.900Z,16.83
2018-11-23T18:40:26.430Z,15.50
2018-11-23T18:42:54.965Z,16.33
2018-11-23T18:45:23.520Z,16.13
2018-11-23T18:47:52.978Z,15.27
2018-11-23T18:50:21.588Z,16.00
2018-11-23T18:52:50.143Z,16.23
2018-11-23T18:55:18.714Z,15.67
2018-11-23T18:57:47.312Z,15.20
2018-11-23T19:00:16.503Z,15.67
2018-11-23T19:02:46.458Z,16.30
2018-11-23T19:05:21.625Z,17.17
2018-11-23T19:07:50.186Z,16.17
2018-11-23T19:10:18.756Z,16.13
2018-11-23T19:12:47.358Z,15.90
2018-11-23T19:15:17.522Z,15.40
2018-11-23T19:17:45.707Z,15.97
2018-11-23T19:20:18.588Z,15.50
2018-11-23T19:22:50.370Z,16.33
2018-11-23T19:25:18.998Z,15.20
2018-11-23T19:27:47.570Z,16.03
2018-11-23T19:30:17.454Z,15.47
2018-11-23T19:32:46.046Z,14.93
2018-11-23T19:35:14.760Z,14.67
2018-11-23T19:37:43.364Z,15.63
2018-11-23T19:40:13.989Z,14.40
2018-11-23T19:42:43.241Z,14.73
2018-11-23T19:45:14.055Z,14.50
2018-11-23T19:47:42.768Z,13.90
2018-11-23T19:50:12.857Z,14.37
2018-11-23T19:52:41.757Z,14.20
2018-11-23T19:55:11.332Z,12.87
2018-11-23T19:57:39.912Z,12.87
2018-11-23T20:00:30.035Z,13.87
2018-11-23T20:02:59.549Z,13.17
2018-11-23T20:05:28.149Z,13.73
2018-11-23T20:07:57.452Z,13.37
2018-11-23T20:10:26.376Z,13.13
2018-11-23T20:12:57.220Z,13.53
2018-11-23T20:15:25.850Z,12.67
2018-11-23T20:17:54.500Z,13.90
2018-11-23T20:20:23.081Z,13.47
2018-11-23T20:22:51.851Z,12.80
2018-11-23T20:25:21.156Z,13.43
2018-11-23T20:27:50.923Z,13.43
2018-11-23T20:30:20.246Z,12.80
2018-11-23T20:32:48.916Z,13.40
2018-11-23T20:35:20.381Z,14.20
2018-11-23T20:37:48.970Z,12.93
2018-11-23T20:40:19.820Z,13.20
2018-11-23T20:42:48.391Z,12.70
2018-11-23T20:45:16.988Z,12.40
2018-11-23T20:47:45.631Z,13.23
2018-11-23T20:50:15.206Z,13.63
2018-11-23T20:52:43.803Z,12.97
2018-11-23T20:55:14.788Z,13.50
2018-11-23T20:57:43.379Z,12.60
2018-11-23T21:00:15.175Z,12.60
2018-11-23T21:02:44.224Z,11.87
2018-11-23T21:05:13.731Z,12.30
2018-11-23T21:07:42.240Z,11.80
2018-11-23T21:10:19.618Z,12.17
2018-11-23T21:12:40.768Z,12.33
2018-11-23T21:15:16.799Z,12.17
2018-11-23T21:17:45.410Z,12.00
2018-11-23T21:20:13.936Z,12.07
2018-11-23T21:22:42.506Z,12.60
2018-11-23T21:25:11.418Z,12.07
2018-11-23T21:27:39.981Z,13.33
2018-11-23T21:30:13.188Z,11.63
2018-11-23T21:32:41.754Z,12.33
2018-11-23T21:35:11.253Z,11.87
2018-11-23T21:37:39.772Z,12.70
2018-11-23T21:40:14.759Z,12.60
2018-11-23T21:42:43.350Z,11.60
2018-11-23T21:45:16.208Z,12.20
2018-11-23T21:47:44.792Z,12.07
2018-11-23T21:50:15.550Z,11.50
2018-11-23T21:52:44.108Z,12.27
2018-11-23T21:55:15.055Z,12.00
2018-11-23T21:57:43.647Z,11.67
2018-11-23T22:00:13.673Z,12.13
2018-11-23T22:02:42.340Z,12.33
2018-11-23T22:05:11.425Z,11.80
2018-11-23T22:07:40.058Z,12.53
2018-11-23T22:10:12.763Z,12.47
2018-11-23T22:12:41.356Z,12.43
2018-11-23T22:15:11.595Z,12.87
2018-11-23T22:17:40.160Z,13.77
2018-11-23T22:20:12.183Z,13.10
2018-11-23T22:22:41.063Z,12.27
2018-11-23T22:25:11.967Z,13.20
2018-11-23T22:27:40.621Z,13.43
2018-11-23T22:30:15.346Z,12.50
2018-11-23T22:32:44.092Z,12.80
2018-11-23T22:35:13.509Z,12.27
2018-11-23T22:37:42.293Z,13.03
2018-11-23T22:40:13.142Z,12.23
2018-11-23T22:42:43.107Z,13.30
2018-11-23T22:45:12.990Z,11.67
2018-11-23T22:47:41.587Z,12.77
2018-11-23T22:50:14.161Z,11.80
2018-11-23T22:52:42.960Z,12.57
2018-11-23T22:55:12.766Z,12.80
2018-11-23T22:57:41.547Z,12.63
2018-11-23T23:00:28.588Z,12.83
2018-11-23T23:02:57.523Z,13.03
2018-11-23T23:05:26.114Z,13.03
2018-11-23T23:07:54.802Z,12.73
2018-11-23T23:10:23.407Z,13.97
2018-11-23T23:12:52.232Z,13.27
2018-11-23T23:15:20.806Z,12.60
2018-11-23T23:17:49.357Z,13.77
2018-11-23T23:20:20.051Z,12.50
2018-11-23T23:22:48.621Z,13.23
2018-11-23T23:25:17.306Z,13.10
2018-11-23T23:27:45.907Z,12.87
2018-11-23T23:30:15.736Z,13.23
2018-11-23T23:32:44.912Z,12.93
2018-11-23T23:35:14.444Z,13.27
2018-11-23T23:37:43.134Z,13.50
2018-11-23T23:40:13.157Z,12.87
2018-11-23T23:42:44.388Z,13.43
2018-11-23T23:45:14.919Z,13.17
2018-11-23T23:47:43.644Z,13.20
2018-11-23T23:50:15.719Z,13.17
2018-11-23T23:52:44.575Z,14.23
2018-11-23T23:55:13.208Z,13.73
2018-11-23T23:57:43.221Z,13.13
